Humidity-temperature Sensor

Selected Measurement Type: Relative Humidity

 
Relative Humidity [%]     6 entries per hour
Showing data from 3/22/2023 (00:00:00 Z) to 3/21/2023 (00:01:00 Z)
Previous Next [ Day | 3-Days | 7-Days ]
First Last
Prev [ Day | 3-Days | 7-Days ] Next
First Last

Start Time:     :
End Time:     :     
Time (in GMT) :00 :50 :40 :30 :20 :10
Previous Next [ Day | 3-Days | 7-Days ]
First Last
Prev [ Day | 3-Days | 7-Days ] Next
First Last


123 => good data
MM => data is determined as missing
-- => data not received/configured
Back to Top Back to Top
3/22/2023 00:00 to 23:10 79.74 77.78 79.51 78.84 77.26 79.95
3/21/2023 23:00 to 22:10 77.01 76.80 77.45 77.80 77.74 77.91
3/21/2023 22:00 to 21:10 77.76 77.17 77.99 77.47 77.26 74.67
3/21/2023 21:00 to 20:10 77.38 77.86 77.61 78.64 79.12 76.74
3/21/2023 20:00 to 19:10 73.75 76.15 79.70 77.84 77.11 77.65
3/21/2023 19:00 to 18:10 77.61 76.44 76.42 77.53 79.80 77.61
3/21/2023 18:00 to 17:10 76.42 77.61 77.51 79.32 79.97 77.34
3/21/2023 17:00 to 16:10 77.93 79.01 78.80 78.13 78.66 76.57
3/21/2023 16:00 to 15:10 80.18 76.90 79.18 78.26 77.82 77.70
3/21/2023 15:00 to 14:10 78.47 80.41 78.78 76.82 78.45 78.97
3/21/2023 14:00 to 13:10 79.70 79.24 80.58 79.12 78.80 76.88
3/21/2023 13:00 to 12:10 77.15 76.34 77.88 78.41 81.48 77.28
3/21/2023 12:00 to 11:10 77.15 77.76 78.93 78.41 77.82 76.26
3/21/2023 11:00 to 10:10 77.15 75.05 76.76 75.78 76.92 75.00
3/21/2023 10:00 to 9:10 76.84 78.59 77.55 75.00 78.09 77.22
3/21/2023 09:00 to 8:10 76.28 75.53 77.61 76.74 76.74 77.09
3/21/2023 08:00 to 7:10 74.98 76.05 74.36 73.56 71.73 71.50
3/21/2023 07:00 to 6:10 70.64 67.82 69.39 70.97 72.44 71.41
3/21/2023 06:00 to 5:10 71.98 74.40 75.38 75.84 76.36 73.81
3/21/2023 05:00 to 4:10 77.03 76.78 74.19 75.11 77.09 76.55
3/21/2023 04:00 to 3:10 75.30 74.57 74.69 74.79 74.27 75.05
3/21/2023 03:00 to 2:10 73.83 73.63 73.56 74.42 73.23 72.19
3/21/2023 02:00 to 1:10 72.85 73.96 74.15 73.46 74.36 76.46
3/21/2023 01:00 to 0:10 75.00 75.86 74.79 75.82 76.03 77.57